Time;durP1;ratioP1;P1;durP2;ratioP2;P2;SDS_P1;SDS_P2;PMS_P1;PMS_P2;Temp;Humidity;BMP_temperature;BMP_pressure;BME280_temperature;BME280_humidity;BME280_pressure;Samples;Min_cycle;Max_cycle;Signal;HPM_P1;HPM_P2
2021/01/14 00:00:41;;;;;;;28.70;16.45;;;4.50;99.90;;;;;;5029780;28;20124;-77
2021/01/14 00:03:09;;;;;;;27.38;16.98;;;4.50;99.90;;;;;;5028628;28;20124;-78
2021/01/14 00:05:35;;;;;;;26.50;16.02;;;4.50;99.90;;;;;;5017759;28;20127;-78
2021/01/14 00:08:05;;;;;;;26.38;15.25;;;4.50;99.90;;;;;;5028703;28;20088;-78
2021/01/14 00:10:31;;;;;;;28.73;16.00;;;4.40;99.90;;;;;;5023268;28;20540;-78
2021/01/14 00:12:58;;;;;;;28.17;15.07;;;4.40;99.90;;;;;;5020399;28;20475;-79
2021/01/14 00:15:24;;;;;;;26.67;15.02;;;4.40;99.90;;;;;;5030112;28;20481;-78
2021/01/14 00:17:51;;;;;;;25.48;15.35;;;4.40;99.90;;;;;;5029579;28;20603;-78
2021/01/14 00:20:19;;;;;;;25.85;14.88;;;4.40;99.90;;;;;;5021020;28;20450;-77
2021/01/14 00:22:46;;;;;;;27.35;14.65;;;4.40;99.90;;;;;;5021985;28;20546;-78
2021/01/14 00:25:15;;;;;;;27.63;14.63;;;4.50;99.90;;;;;;5029596;28;20131;-76
2021/01/14 00:27:41;;;;;;;22.50;14.20;;;4.40;99.90;;;;;;5003411;28;20137;-77
2021/01/14 00:30:11;;;;;;;25.60;13.82;;;4.40;99.90;;;;;;5026743;28;20046;-79
2021/01/14 00:32:38;;;;;;;27.98;14.27;;;4.40;99.90;;;;;;5024539;28;20137;-78
2021/01/14 00:35:06;;;;;;;27.75;14.95;;;4.40;99.90;;;;;;5019046;28;20463;-78
2021/01/14 00:37:51;;;;;;;26.45;14.45;;;4.40;99.90;;;;;;5017907;28;20081;-77
2021/01/14 00:40:23;;;;;;;24.88;13.30;;;4.40;99.90;;;;;;5026209;28;20395;-78
2021/01/14 00:42:57;;;;;;;26.20;13.00;;;4.40;99.90;;;;;;5024952;28;20513;-77
2021/01/14 00:45:24;;;;;;;25.70;12.63;;;4.40;99.90;;;;;;5016165;28;20107;-77
2021/01/14 00:47:51;;;;;;;19.73;12.18;;;4.50;99.90;;;;;;5029388;28;20149;-77
2021/01/14 00:50:17;;;;;;;23.83;10.82;;;4.40;99.90;;;;;;5020389;28;20549;-78
2021/01/14 00:52:44;;;;;;;21.88;10.85;;;4.40;99.90;;;;;;5021458;28;20132;-77
2021/01/14 00:55:13;;;;;;;17.98;10.63;;;4.40;99.90;;;;;;5027909;28;20081;-77
2021/01/14 00:57:40;;;;;;;20.00;9.90;;;4.40;99.90;;;;;;5017147;28;20148;-77
2021/01/14 01:00:09;;;;;;;18.90;9.73;;;4.40;99.90;;;;;;5031643;28;20088;-75
2021/01/14 01:02:36;;;;;;;20.58;10.05;;;4.50;99.90;;;;;;5022547;28;20524;-78
2021/01/14 01:05:02;;;;;;;23.23;10.43;;;4.50;99.90;;;;;;5026517;28;20087;-77
2021/01/14 01:07:47;;;;;;;18.20;9.43;;;4.50;99.90;;;;;;5016530;28;20058;-77
2021/01/14 01:10:13;;;;;;;23.00;9.25;;;4.50;99.90;;;;;;5025264;28;20058;-77
2021/01/14 01:12:40;;;;;;;19.38;8.63;;;4.50;99.90;;;;;;5023353;28;20144;-77
2021/01/14 01:15:08;;;;;;;18.45;8.63;;;4.50;99.90;;;;;;5019074;28;20522;-77
2021/01/14 01:17:34;;;;;;;16.08;7.75;;;4.40;99.90;;;;;;5011158;28;20497;-77
2021/01/14 01:20:01;;;;;;;20.45;8.45;;;4.40;99.90;;;;;;5027445;28;20049;-77
2021/01/14 01:22:27;;;;;;;17.60;8.35;;;4.40;99.90;;;;;;5016190;28;20052;-78
2021/01/14 01:24:54;;;;;;;18.50;8.43;;;4.40;99.90;;;;;;5013918;28;20057;-79
2021/01/14 01:27:20;;;;;;;19.35;7.68;;;4.30;99.90;;;;;;5012065;28;20128;-79
2021/01/14 01:29:47;;;;;;;16.13;7.32;;;4.30;99.90;;;;;;5008962;28;20209;-78
2021/01/14 01:32:14;;;;;;;16.33;7.32;;;4.30;99.90;;;;;;5001632;28;20047;-78
2021/01/14 01:34:40;;;;;;;14.57;6.57;;;4.30;99.90;;;;;;5000943;28;20100;-77
2021/01/14 01:37:06;;;;;;;17.05;5.40;;;4.30;99.90;;;;;;5003809;28;20041;-77
2021/01/14 01:39:33;;;;;;;14.65;4.90;;;4.30;99.90;;;;;;5003925;28;20050;-77
2021/01/14 01:41:59;;;;;;;12.43;4.35;;;4.20;99.90;;;;;;5001742;28;20142;-76
2021/01/14 01:44:26;;;;;;;16.20;4.60;;;4.20;99.90;;;;;;5003001;28;20129;-78
2021/01/14 01:46:55;;;;;;;13.63;4.70;;;4.20;99.90;;;;;;5001192;28;20050;-78
2021/01/14 01:49:22;;;;;;;14.85;4.22;;;4.20;99.90;;;;;;5004344;28;20386;-78
2021/01/14 01:51:52;;;;;;;13.00;4.20;;;4.30;99.90;;;;;;4999924;28;20135;-76
2021/01/14 01:54:19;;;;;;;14.60;4.32;;;4.30;99.90;;;;;;4994394;28;20106;-77
2021/01/14 01:56:45;;;;;;;10.13;4.28;;;4.30;99.90;;;;;;4994064;28;20129;-77
2021/01/14 01:59:13;;;;;;;12.82;3.72;;;4.30;99.90;;;;;;4994747;28;20074;-77
2021/01/14 02:01:40;;;;;;;11.80;4.45;;;4.20;99.90;;;;;;5003436;28;20054;-78
2021/01/14 02:04:08;;;;;;;10.40;3.42;;;4.20;99.90;;;;;;5013284;28;20061;-78
2021/01/14 02:06:42;;;;;;;8.90;3.30;;;4.20;99.90;;;;;;5010678;28;20057;-79
2021/01/14 02:09:11;;;;;;;12.43;3.25;;;4.20;99.90;;;;;;5010452;28;20374;-78
2021/01/14 02:11:42;;;;;;;8.88;2.92;;;4.20;99.90;;;;;;5011776;28;20065;-77
2021/01/14 02:14:14;;;;;;;7.97;3.20;;;4.10;99.90;;;;;;4999908;28;20109;-78
2021/01/14 02:16:43;;;;;;;15.37;3.00;;;4.10;99.90;;;;;;4994862;28;20466;-78
2021/01/14 02:19:20;;;;;;;10.75;3.15;;;4.10;99.90;;;;;;4995492;28;20084;-79
2021/01/14 02:21:48;;;;;;;12.57;3.00;;;4.10;99.90;;;;;;4995007;28;20137;-76
2021/01/14 02:24:24;;;;;;;9.90;3.70;;;4.10;99.90;;;;;;4994736;28;20134;-77
2021/01/14 02:26:53;;;;;;;8.57;2.90;;;4.10;99.90;;;;;;4995596;28;20088;-78
2021/01/14 02:29:19;;;;;;;8.75;2.85;;;4.00;99.90;;;;;;5006450;28;20050;-77
2021/01/14 02:31:46;;;;;;;8.48;3.10;;;4.10;99.90;;;;;;5008664;28;20078;-79
2021/01/14 02:34:12;;;;;;;9.45;2.83;;;4.10;99.90;;;;;;5010125;28;20050;-79
2021/01/14 02:36:38;;;;;;;8.10;2.65;;;4.10;99.90;;;;;;5003569;28;20081;-78
2021/01/14 02:39:05;;;;;;;6.40;2.55;;;4.10;99.90;;;;;;4994408;28;20530;-78
2021/01/14 02:41:31;;;;;;;9.00;2.90;;;4.10;99.90;;;;;;4996128;28;20137;-78
2021/01/14 02:43:59;;;;;;;16.75;3.90;;;4.00;99.90;;;;;;4999100;28;20046;-79
2021/01/14 02:46:27;;;;;;;10.43;3.08;;;4.00;99.90;;;;;;5005005;28;20081;-79
2021/01/14 02:49:01;;;;;;;12.50;3.67;;;4.00;99.90;;;;;;4998450;28;20050;-78
2021/01/14 02:51:35;;;;;;;11.73;4.00;;;4.10;99.90;;;;;;4995920;28;20049;-78
2021/01/14 02:54:03;;;;;;;8.27;3.20;;;4.00;99.90;;;;;;4995917;28;20137;-78
2021/01/14 02:56:32;;;;;;;11.75;3.78;;;4.00;99.90;;;;;;4996139;28;20138;-78
2021/01/14 02:59:01;;;;;;;14.48;3.58;;;4.00;99.90;;;;;;4995708;28;20158;-78
2021/01/14 03:01:27;;;;;;;8.95;3.40;;;4.00;99.90;;;;;;4995688;28;20085;-78
2021/01/14 03:03:54;;;;;;;8.45;3.47;;;4.00;99.90;;;;;;4996562;28;20447;-78
2021/01/14 03:06:20;;;;;;;11.70;3.40;;;4.00;99.90;;;;;;4995550;28;20125;-78
2021/01/14 03:08:47;;;;;;;11.73;4.72;;;4.00;99.90;;;;;;4997349;28;20141;-79
2021/01/14 03:11:13;;;;;;;7.65;3.00;;;4.00;99.90;;;;;;4998491;28;20055;-79
2021/01/14 03:13:39;;;;;;;8.52;3.20;;;3.90;99.90;;;;;;4997738;28;20496;-79
2021/01/14 03:16:08;;;;;;;17.10;5.65;;;3.90;99.90;;;;;;4996621;28;20109;-79
2021/01/14 03:18:34;;;;;;;9.35;3.00;;;3.80;99.90;;;;;;4996729;28;20482;-79
2021/01/14 03:21:01;;;;;;;8.60;3.03;;;3.80;99.90;;;;;;4997066;28;20133;-77
2021/01/14 03:23:27;;;;;;;12.20;2.97;;;3.80;99.90;;;;;;4997249;28;20514;-79
2021/01/14 03:25:54;;;;;;;12.82;3.38;;;3.70;99.90;;;;;;4997801;28;20082;-79
2021/01/14 03:28:20;;;;;;;9.77;2.85;;;3.70;99.90;;;;;;5000872;28;20050;-80
2021/01/14 03:30:46;;;;;;;10.75;2.67;;;3.80;99.90;;;;;;5001418;28;20109;-81
2021/01/14 03:33:14;;;;;;;9.63;2.92;;;3.80;99.90;;;;;;5002070;28;20137;-79
2021/01/14 03:35:40;;;;;;;8.13;2.78;;;3.80;99.90;;;;;;5003320;28;20089;-79
2021/01/14 03:38:06;;;;;;;9.20;2.92;;;3.70;99.90;;;;;;5001450;28;20129;-79
2021/01/14 03:40:33;;;;;;;9.65;2.85;;;3.70;99.90;;;;;;5001083;28;20054;-80
2021/01/14 03:42:59;;;;;;;12.38;3.13;;;3.70;99.90;;;;;;5002139;28;20121;-80
2021/01/14 03:45:26;;;;;;;4.78;2.65;;;3.70;99.90;;;;;;4999833;28;20085;-79
2021/01/14 03:47:52;;;;;;;9.30;3.00;;;3.70;99.90;;;;;;4998795;28;20088;-79
2021/01/14 03:50:20;;;;;;;15.52;3.40;;;3.70;99.90;;;;;;4998384;28;20058;-79
2021/01/14 03:52:46;;;;;;;8.48;3.30;;;3.60;99.90;;;;;;4999017;28;20082;-79
2021/01/14 03:55:12;;;;;;;10.25;4.05;;;3.60;99.90;;;;;;4999023;28;20057;-79
2021/01/14 03:57:39;;;;;;;11.70;3.40;;;3.60;99.90;;;;;;4999360;28;20129;-79
2021/01/14 04:00:07;;;;;;;9.00;3.30;;;3.60;99.90;;;;;;4999952;28;20085;-81
2021/01/14 04:02:33;;;;;;;10.50;2.72;;;3.70;99.90;;;;;;4998472;28;20081;-80
2021/01/14 04:05:00;;;;;;;8.43;3.28;;;3.70;99.90;;;;;;4999644;28;20205;-80
2021/01/14 04:07:27;;;;;;;7.80;3.17;;;3.60;99.90;;;;;;4999595;28;20082;-80
2021/01/14 04:09:54;;;;;;;9.13;3.10;;;3.60;99.90;;;;;;4998662;28;20108;-80
2021/01/14 04:12:27;;;;;;;7.18;3.17;;;3.60;99.90;;;;;;4997028;28;20504;-79
2021/01/14 04:14:54;;;;;;;9.65;3.13;;;3.70;99.90;;;;;;4998640;28;20042;-80
2021/01/14 04:17:20;;;;;;;7.13;3.38;;;3.70;99.90;;;;;;4996383;28;20565;-79
2021/01/14 04:19:47;;;;;;;9.93;3.50;;;3.70;99.90;;;;;;4996595;28;20545;-79
2021/01/14 04:22:14;;;;;;;7.85;3.63;;;3.60;99.90;;;;;;4996119;28;20137;-79
2021/01/14 04:24:41;;;;;;;11.65;3.10;;;3.60;99.90;;;;;;4998358;28;20058;-80
2021/01/14 04:27:08;;;;;;;9.15;3.20;;;3.70;99.90;;;;;;5000383;28;20118;-80
2021/01/14 04:29:34;;;;;;;7.28;3.65;;;3.60;99.90;;;;;;5000743;28;20110;-81
2021/01/14 04:32:01;;;;;;;9.50;3.15;;;3.60;99.90;;;;;;5000745;28;20109;-80
2021/01/14 04:34:28;;;;;;;10.75;3.47;;;3.60;99.90;;;;;;5000818;28;20074;-80
2021/01/14 04:36:57;;;;;;;10.52;2.83;;;3.60;99.90;;;;;;5000255;28;20050;-81
2021/01/14 04:39:24;;;;;;;9.75;2.85;;;3.70;99.90;;;;;;5000577;28;20260;-79
2021/01/14 04:41:56;;;;;;;9.05;3.00;;;3.70;99.90;;;;;;4999780;28;20086;-80
2021/01/14 04:44:23;;;;;;;10.73;2.53;;;3.60;99.90;;;;;;5000187;28;20046;-81
2021/01/14 04:46:51;;;;;;;9.13;2.55;;;3.60;99.90;;;;;;5000300;28;20332;-80
2021/01/14 04:49:18;;;;;;;10.82;3.03;;;3.60;99.90;;;;;;4998872;28;20141;-80
2021/01/14 04:51:46;;;;;;;11.32;3.05;;;3.50;99.90;;;;;;5000098;28;20550;-79
2021/01/14 04:54:14;;;;;;;12.15;2.50;;;3.50;99.90;;;;;;4999545;28;20056;-79
2021/01/14 04:56:41;;;;;;;12.82;4.07;;;3.50;99.90;;;;;;4999304;28;20060;-78
2021/01/14 04:59:08;;;;;;;9.07;2.75;;;3.50;99.90;;;;;;4999335;28;20124;-79
2021/01/14 05:01:41;;;;;;;16.33;3.13;;;3.50;99.90;;;;;;4999169;28;20133;-79
2021/01/14 05:04:10;;;;;;;9.93;2.95;;;3.50;99.90;;;;;;4995561;28;20188;-78
2021/01/14 05:06:39;;;;;;;13.85;3.15;;;3.50;99.90;;;;;;4995733;28;20078;-78
2021/01/14 05:09:07;;;;;;;11.18;2.88;;;3.50;99.90;;;;;;4995587;28;20129;-79
2021/01/14 05:11:40;;;;;;;8.93;2.92;;;3.50;99.90;;;;;;5002321;28;20519;-82
2021/01/14 05:14:08;;;;;;;9.18;3.35;;;3.50;99.90;;;;;;5000711;28;20050;-78
2021/01/14 05:16:35;;;;;;;9.07;3.00;;;3.40;99.90;;;;;;4997861;28;20062;-78
2021/01/14 05:19:01;;;;;;;6.43;3.00;;;3.50;99.90;;;;;;4998826;28;20572;-78
2021/01/14 05:21:32;;;;;;;10.70;3.03;;;3.40;99.90;;;;;;5000128;28;20050;-78
2021/01/14 05:24:09;;;;;;;8.20;2.97;;;3.40;99.90;;;;;;5007315;28;20062;-83
2021/01/14 05:26:36;;;;;;;9.13;2.83;;;3.40;99.90;;;;;;4996725;28;20096;-78
2021/01/14 05:29:13;;;;;;;12.23;3.60;;;3.40;99.90;;;;;;4996765;28;20133;-81
2021/01/14 05:31:40;;;;;;;11.07;3.10;;;3.30;99.90;;;;;;4995150;28;20132;-78
2021/01/14 05:34:06;;;;;;;8.25;3.15;;;3.30;99.90;;;;;;4995121;28;20711;-78
2021/01/14 05:36:51;;;;;;;9.77;3.30;;;3.30;99.90;;;;;;4995667;28;20088;-80
2021/01/14 05:39:18;;;;;;;13.63;3.17;;;3.30;99.90;;;;;;4999636;28;20499;-78
2021/01/14 05:41:45;;;;;;;12.48;3.70;;;3.30;99.90;;;;;;4997763;28;20106;-80
2021/01/14 05:44:12;;;;;;;8.23;3.35;;;3.30;99.90;;;;;;4998904;28;20460;-79
2021/01/14 05:46:38;;;;;;;11.15;3.28;;;3.30;99.90;;;;;;4999112;28;20073;-80
2021/01/14 05:49:08;;;;;;;10.35;3.15;;;3.30;99.90;;;;;;5000702;28;20085;-80
2021/01/14 05:51:35;;;;;;;14.88;3.63;;;3.30;99.90;;;;;;5000723;28;20061;-80
2021/01/14 05:54:03;;;;;;;12.43;3.53;;;3.30;99.90;;;;;;4998678;28;20129;-82
2021/01/14 05:56:35;;;;;;;11.85;4.00;;;3.20;99.90;;;;;;4998629;28;20108;-82
2021/01/14 05:59:02;;;;;;;5.50;2.37;;;3.20;99.90;;;;;;4999515;28;20109;-82
2021/01/14 06:01:29;;;;;;;12.82;3.28;;;3.20;99.90;;;;;;4998919;28;20133;-82
2021/01/14 06:04:17;;;;;;;12.45;4.10;;;3.20;99.90;;;;;;4999309;28;20142;-82
2021/01/14 06:06:44;;;;;;;9.00;3.55;;;3.10;99.90;;;;;;4999309;28;20471;-80
2021/01/14 06:09:12;;;;;;;11.65;3.53;;;3.10;99.90;;;;;;4998589;28;20057;-80
2021/01/14 06:11:39;;;;;;;10.88;3.67;;;3.10;99.90;;;;;;4996702;28;20090;-81
2021/01/14 06:14:05;;;;;;;12.02;3.83;;;3.10;99.90;;;;;;5001339;28;20403;-81
2021/01/14 06:16:49;;;;;;;7.43;3.95;;;3.10;99.90;;;;;;5003816;28;20114;-81
2021/01/14 06:19:16;;;;;;;14.82;4.63;;;3.20;99.90;;;;;;5013609;28;20054;-81
2021/01/14 06:21:46;;;;;;;10.95;3.97;;;3.20;99.90;;;;;;5024133;28;20069;-81
2021/01/14 06:24:23;;;;;;;11.20;4.53;;;3.20;99.90;;;;;;5020931;28;20112;-81
2021/01/14 06:26:50;;;;;;;11.88;3.63;;;3.10;99.90;;;;;;5022737;28;20053;-81
2021/01/14 06:29:22;;;;;;;12.13;4.20;;;3.10;99.90;;;;;;5023084;28;20082;-80
2021/01/14 06:31:49;;;;;;;13.48;3.53;;;3.10;99.90;;;;;;5019938;28;20085;-80
2021/01/14 06:34:19;;;;;;;12.20;4.00;;;3.10;99.90;;;;;;5018862;28;20045;-81
2021/01/14 06:36:48;;;;;;;12.85;3.97;;;3.10;99.90;;;;;;5019208;28;20084;-80
2021/01/14 06:39:17;;;;;;;10.55;3.38;;;3.10;99.90;;;;;;5019331;28;20050;-80
2021/01/14 06:41:45;;;;;;;10.52;3.65;;;3.00;99.90;;;;;;5017836;28;20081;-79
2021/01/14 06:44:14;;;;;;;10.60;3.80;;;3.10;99.90;;;;;;5018209;28;20085;-80
2021/01/14 06:46:41;;;;;;;8.52;3.50;;;3.00;99.90;;;;;;5018652;28;20431;-79
2021/01/14 06:49:12;;;;;;;16.00;4.70;;;2.90;99.90;;;;;;5024128;28;20454;-80
2021/01/14 06:51:53;;;;;;;17.13;3.72;;;2.90;99.90;;;;;;5027606;28;20345;-81
2021/01/14 06:54:21;;;;;;;12.60;3.45;;;3.00;99.90;;;;;;5024801;28;20096;-82
2021/01/14 07:01:17;;;;;;;11.52;3.83;;;3.10;99.90;;;;;;5024148;28;20061;-82
2021/01/14 07:07:38;;;;;;;10.95;3.72;;;3.10;99.90;;;;;;5019793;28;20109;-81
2021/01/14 07:10:07;;;;;;;10.65;3.60;;;3.20;99.90;;;;;;5022839;28;20050;-81
2021/01/14 07:12:35;;;;;;;13.30;3.75;;;3.10;99.90;;;;;;5021313;28;20414;-81
2021/01/14 07:15:07;;;;;;;11.43;3.72;;;3.10;99.90;;;;;;5021771;28;20089;-80
2021/01/14 07:17:36;;;;;;;19.98;4.47;;;3.10;99.90;;;;;;5022105;28;20084;-80
2021/01/14 07:20:06;;;;;;;14.55;4.35;;;3.00;99.90;;;;;;5022136;28;20104;-80
2021/01/14 07:22:38;;;;;;;13.10;3.60;;;3.00;99.90;;;;;;5021481;28;20502;-79
2021/01/14 07:25:06;;;;;;;10.13;3.95;;;3.10;99.90;;;;;;5021804;28;20050;-82
2021/01/14 07:27:36;;;;;;;14.35;4.18;;;3.10;99.90;;;;;;5026125;28;20177;-81
2021/01/14 07:30:05;;;;;;;15.93;4.82;;;3.10;99.90;;;;;;5035886;28;20046;-79
2021/01/14 07:32:55;;;;;;;12.02;4.88;;;3.10;99.90;;;;;;5025115;28;20410;-82
2021/01/14 07:35:35;;;;;;;13.45;4.30;;;3.10;99.90;;;;;;5023800;28;20048;-80
2021/01/14 07:38:03;;;;;;;13.48;4.18;;;3.10;99.90;;;;;;5024089;28;20050;-82
2021/01/14 07:40:29;;;;;;;12.73;4.00;;;3.10;99.90;;;;;;5024578;28;20096;-81
2021/01/14 07:42:57;;;;;;;11.50;4.85;;;3.10;99.90;;;;;;5024149;28;20118;-80
2021/01/14 07:45:23;;;;;;;11.80;4.32;;;3.20;99.90;;;;;;5031076;28;20054;-79
2021/01/14 07:47:50;;;;;;;12.05;4.80;;;3.20;99.90;;;;;;5032381;28;20053;-81
2021/01/14 07:50:22;;;;;;;11.85;4.07;;;3.20;99.90;;;;;;5024384;28;20057;-80
2021/01/14 07:52:50;;;;;;;18.88;5.32;;;3.10;99.90;;;;;;5021638;28;20555;-80
2021/01/14 07:55:27;;;;;;;13.10;4.10;;;3.10;99.90;;;;;;5022691;28;20129;-80
2021/01/14 07:58:03;;;;;;;10.50;4.20;;;3.10;99.90;;;;;;5022961;28;20072;-79
2021/01/14 08:00:30;;;;;;;10.48;4.45;;;3.10;99.90;;;;;;5021790;28;20128;-79
2021/01/14 08:03:13;;;;;;;17.23;5.30;;;3.10;99.90;;;;;;5021716;28;20133;-79
2021/01/14 08:05:44;;;;;;;12.38;4.80;;;3.10;99.90;;;;;;5022017;28;20521;-78
2021/01/14 08:08:30;;;;;;;17.38;5.10;;;3.10;99.90;;;;;;5029558;28;20058;-80
2021/01/14 08:11:16;;;;;;;13.52;4.03;;;3.10;99.90;;;;;;5029537;28;20057;-78
2021/01/14 08:14:17;;;;;;;12.77;4.50;;;3.00;99.90;;;;;;5030511;28;20054;-79
2021/01/14 08:16:46;;;;;;;10.98;4.38;;;3.00;99.90;;;;;;5023737;28;20137;-80
2021/01/14 08:19:31;;;;;;;13.07;4.00;;;2.90;99.90;;;;;;5020459;28;20467;-80
2021/01/14 08:22:12;;;;;;;10.55;4.78;;;2.90;99.90;;;;;;5013519;28;20161;-80
2021/01/14 08:24:45;;;;;;;11.20;4.30;;;2.90;99.90;;;;;;5020741;28;20073;-80
2021/01/14 08:27:13;;;;;;;10.30;4.70;;;3.00;99.90;;;;;;5020387;28;20057;-80
2021/01/14 08:29:47;;;;;;;9.15;4.78;;;3.00;99.90;;;;;;5019594;28;20054;-80
2021/01/14 08:32:34;;;;;;;11.07;4.18;;;2.90;99.90;;;;;;5020818;28;20069;-80
2021/01/14 08:35:03;;;;;;;13.27;4.57;;;3.00;99.90;;;;;;5018625;28;20070;-80
2021/01/14 08:37:32;;;;;;;11.55;4.10;;;3.00;99.90;;;;;;5018955;28;20200;-80
2021/01/14 08:40:01;;;;;;;9.60;4.93;;;3.00;99.90;;;;;;5019616;28;20077;-79
2021/01/14 08:42:33;;;;;;;8.18;3.80;;;3.10;99.90;;;;;;5017326;28;20046;-79
2021/01/14 08:45:07;;;;;;;6.85;3.60;;;3.10;99.90;;;;;;5017579;28;20096;-80
2021/01/14 08:47:56;;;;;;;9.80;3.63;;;3.10;99.90;;;;;;5018455;28;20050;-79
2021/01/14 08:50:33;;;;;;;10.52;4.03;;;3.10;99.90;;;;;;5017963;28;20081;-80
2021/01/14 08:53:02;;;;;;;11.20;3.67;;;3.10;99.90;;;;;;5017395;28;20522;-79
2021/01/14 08:55:29;;;;;;;17.23;4.20;;;3.20;99.90;;;;;;5017015;28;20311;-80
2021/01/14 08:57:57;;;;;;;14.57;4.05;;;3.10;99.90;;;;;;5014412;28;20085;-79
2021/01/14 09:00:24;;;;;;;14.27;3.88;;;3.20;99.90;;;;;;5010229;28;20061;-79
2021/01/14 09:02:54;;;;;;;12.80;4.28;;;3.10;99.90;;;;;;5019295;28;20077;-79
2021/01/14 09:05:20;;;;;;;10.30;4.13;;;3.10;99.90;;;;;;5012755;28;20047;-81
2021/01/14 09:08:06;;;;;;;13.23;4.15;;;3.00;99.90;;;;;;5012604;28;20053;-79
2021/01/14 09:10:40;;;;;;;11.07;4.30;;;3.00;99.90;;;;;;5007208;28;20634;-79
2021/01/14 09:13:08;;;;;;;14.75;4.45;;;3.10;99.90;;;;;;5000734;28;20078;-79
2021/01/14 09:15:35;;;;;;;13.27;4.35;;;3.10;99.90;;;;;;5011686;28;20483;-79
2021/01/14 09:18:04;;;;;;;11.73;4.32;;;3.10;99.90;;;;;;5018045;28;20514;-79
2021/01/14 09:20:32;;;;;;;9.82;4.07;;;3.00;99.90;;;;;;5020538;28;20537;-80
2021/01/14 09:23:17;;;;;;;11.18;4.10;;;2.90;99.90;;;;;;5000697;28;20129;-78
2021/01/14 09:25:44;;;;;;;17.88;5.32;;;3.10;99.90;;;;;;4996195;28;20455;-78
2021/01/14 09:28:12;;;;;;;8.30;4.10;;;3.10;99.90;;;;;;5036441;23;20041;-80
2021/01/14 09:30:38;;;;;;;9.38;4.53;;;3.10;99.90;;;;;;5039857;28;20077;-80
2021/01/14 09:33:05;;;;;;;9.25;4.30;;;3.20;99.90;;;;;;5039156;28;20083;-80
2021/01/14 09:35:32;;;;;;;9.10;4.50;;;3.30;99.90;;;;;;5042612;28;20053;-79
2021/01/14 09:37:58;;;;;;;15.10;4.78;;;3.30;99.90;;;;;;5044185;28;20045;-81
2021/01/14 09:40:25;;;;;;;8.73;4.30;;;3.30;99.90;;;;;;5044043;28;20068;-81
2021/01/14 09:42:52;;;;;;;11.40;4.13;;;3.40;99.90;;;;;;5040760;28;20140;-81
2021/01/14 09:45:21;;;;;;;16.70;4.53;;;3.40;99.90;;;;;;5027527;28;20042;-79
2021/01/14 09:47:52;;;;;;;14.25;4.80;;;3.40;99.90;;;;;;5018788;28;20057;-82
2021/01/14 09:50:19;;;;;;;13.32;4.28;;;3.40;99.90;;;;;;5021530;28;20053;-82
2021/01/14 09:52:45;;;;;;;11.55;4.40;;;3.30;99.90;;;;;;5025526;28;20073;-79
2021/01/14 09:55:14;;;;;;;8.07;4.25;;;3.30;99.90;;;;;;5024939;28;20484;-79
2021/01/14 09:57:46;;;;;;;13.40;4.00;;;3.30;99.90;;;;;;5020775;28;20132;-83
2021/01/14 10:00:19;;;;;;;17.30;4.72;;;3.30;99.90;;;;;;5021455;28;20046;-82
2021/01/14 10:02:49;;;;;;;;;;;3.20;99.90;;;;;;5025123;28;20084;-81
2021/01/14 10:05:17;;;;;;;13.95;4.50;;;3.30;99.90;;;;;;5041931;28;20144;-81
2021/01/14 10:07:49;;;;;;;9.25;4.13;;;3.30;99.90;;;;;;5039462;28;20084;-80
2021/01/14 10:10:16;;;;;;;12.73;4.30;;;3.30;99.90;;;;;;5021726;28;20084;-80
2021/01/14 10:12:42;;;;;;;16.48;4.43;;;3.30;99.90;;;;;;5038945;28;20084;-80
2021/01/14 10:15:14;;;;;;;16.23;6.05;;;3.30;99.90;;;;;;5041116;28;20494;-81
2021/01/14 10:17:41;;;;;;;13.05;4.60;;;3.40;99.90;;;;;;5028378;28;20083;-79
2021/01/14 10:20:11;;;;;;;12.60;4.53;;;3.50;99.90;;;;;;5031902;28;20081;-79
2021/01/14 10:22:45;;;;;;;13.52;4.53;;;3.50;99.90;;;;;;5022344;28;20063;-81
2021/01/14 10:25:13;;;;;;;10.75;4.93;;;3.50;99.90;;;;;;5038340;28;20139;-82
2021/01/14 10:27:39;;;;;;;9.10;5.30;;;3.50;99.90;;;;;;5038799;28;20152;-82
2021/01/14 10:30:20;;;;;;;9.07;5.15;;;3.50;99.90;;;;;;5041459;28;20061;-81
2021/01/14 10:32:47;;;;;;;17.75;6.75;;;3.50;99.90;;;;;;5041208;28;20076;-82
2021/01/14 10:35:27;;;;;;;13.45;5.50;;;3.50;99.90;;;;;;5021330;28;20053;-81
2021/01/14 10:38:05;;;;;;;12.32;5.35;;;3.50;99.90;;;;;;5021135;28;20078;-82
2021/01/14 10:40:38;;;;;;;11.73;5.55;;;3.50;99.90;;;;;;5020538;28;20592;-81
2021/01/14 10:43:05;;;;;;;14.25;6.43;;;3.60;99.90;;;;;;5020833;28;20561;-81
2021/01/14 10:45:34;;;;;;;12.80;5.75;;;3.50;99.90;;;;;;5019931;28;20057;-81
2021/01/14 10:48:12;;;;;;;11.50;6.97;;;3.50;99.90;;;;;;5020115;28;20124;-80
2021/01/14 10:50:45;;;;;;;12.70;5.80;;;3.50;99.90;;;;;;5018393;28;20050;-80
2021/01/14 10:53:12;;;;;;;10.32;5.63;;;3.40;99.90;;;;;;5020169;28;20110;-81
2021/01/14 10:55:41;;;;;;;10.10;6.10;;;3.40;99.90;;;;;;5030287;28;20441;-81
2021/01/14 10:58:08;;;;;;;11.00;6.28;;;3.30;99.90;;;;;;5033042;28;20085;-81
2021/01/14 11:00:37;;;;;;;13.13;7.03;;;3.20;99.90;;;;;;5028023;28;20046;-78
2021/01/14 11:03:07;;;;;;;11.77;6.50;;;3.10;99.90;;;;;;5021862;28;20420;-81
2021/01/14 11:05:45;;;;;;;14.85;7.18;;;3.10;99.90;;;;;;5000357;28;20529;-80
2021/01/14 11:08:13;;;;;;;13.05;6.72;;;3.10;99.90;;;;;;5007981;28;20064;-81
2021/01/14 11:10:41;;;;;;;14.02;6.55;;;3.20;99.90;;;;;;5023021;28;20050;-82
2021/01/14 11:13:08;;;;;;;11.63;6.63;;;3.30;99.90;;;;;;5024273;28;20451;-81
2021/01/14 11:15:35;;;;;;;12.45;7.63;;;3.30;99.90;;;;;;5021929;28;20057;-80
2021/01/14 11:18:03;;;;;;;15.77;7.32;;;3.50;99.90;;;;;;5023697;28;20053;-80
2021/01/14 11:20:30;;;;;;;11.85;6.78;;;3.50;99.90;;;;;;5019243;28;20046;-82
2021/01/14 11:22:57;;;;;;;11.43;7.00;;;3.50;99.90;;;;;;5024731;28;20057;-80
2021/01/14 11:25:24;;;;;;;14.95;6.50;;;3.50;99.90;;;;;;5042041;28;20088;-82
2021/01/14 11:27:52;;;;;;;12.48;5.78;;;3.50;99.90;;;;;;5040263;28;20077;-81
2021/01/14 11:30:19;;;;;;;18.73;6.15;;;3.50;99.90;;;;;;5039282;28;20167;-82
2021/01/14 11:32:45;;;;;;;14.30;6.13;;;3.40;99.90;;;;;;5033659;28;20265;-79
2021/01/14 11:35:12;;;;;;;11.80;6.78;;;3.50;99.90;;;;;;5035592;28;20042;-79
2021/01/14 11:37:39;;;;;;;9.80;6.30;;;3.50;99.90;;;;;;5027946;28;20506;-81
2021/01/14 11:40:10;;;;;;;10.40;5.78;;;3.50;99.90;;;;;;5024058;28;20053;-79
2021/01/14 11:42:36;;;;;;;8.57;5.78;;;3.50;99.90;;;;;;5020917;28;20136;-81
2021/01/14 11:45:04;;;;;;;9.77;5.47;;;3.40;99.90;;;;;;5018341;28;20088;-81
2021/01/14 11:47:30;;;;;;;11.80;5.40;;;3.40;99.90;;;;;;5018974;28;20084;-81
2021/01/14 11:49:57;;;;;;;7.90;5.30;;;3.40;99.90;;;;;;5017920;28;20057;-81
2021/01/14 11:52:23;;;;;;;12.77;5.82;;;3.30;99.90;;;;;;5017697;28;20200;-80
2021/01/14 11:54:49;;;;;;;12.88;5.30;;;3.40;99.90;;;;;;5017835;28;20473;-80
2021/01/14 11:57:17;;;;;;;10.18;5.35;;;3.40;99.90;;;;;;5017945;28;20120;-81
2021/01/14 11:59:43;;;;;;;8.45;5.35;;;3.50;99.90;;;;;;5018583;28;20454;-81
2021/01/14 12:02:10;;;;;;;8.07;5.38;;;3.40;99.90;;;;;;5017825;28;20133;-81
2021/01/14 12:04:36;;;;;;;11.75;5.55;;;3.50;99.90;;;;;;5018963;28;20125;-80
2021/01/14 12:07:02;;;;;;;7.82;4.88;;;3.50;99.90;;;;;;5018328;28;20082;-82
2021/01/14 12:09:30;;;;;;;8.90;4.95;;;3.50;99.90;;;;;;5023075;28;20037;-82
2021/01/14 12:12:02;;;;;;;12.65;5.05;;;3.50;99.90;;;;;;5031829;28;20046;-80
2021/01/14 12:14:30;;;;;;;13.05;5.38;;;3.60;99.90;;;;;;5027482;28;20098;-79
2021/01/14 12:16:56;;;;;;;9.70;5.53;;;3.70;99.90;;;;;;5020844;28;20132;-82
2021/01/14 12:19:22;;;;;;;8.93;5.63;;;3.70;99.90;;;;;;5019220;28;20092;-80
2021/01/14 12:22:00;;;;;;;9.13;5.05;;;3.70;99.90;;;;;;5015235;28;20050;-81
2021/01/14 12:24:29;;;;;;;11.63;5.35;;;3.70;99.90;;;;;;5017569;28;20053;-78
2021/01/14 12:26:55;;;;;;;9.85;5.85;;;3.70;99.90;;;;;;5019208;28;20066;-79
2021/01/14 12:29:22;;;;;;;11.35;5.57;;;3.70;99.90;;;;;;5020180;28;20491;-80
2021/01/14 12:31:49;;;;;;;8.27;4.70;;;3.60;99.90;;;;;;5019373;28;20046;-80
2021/01/14 12:34:16;;;;;;;7.95;4.32;;;3.70;99.90;;;;;;5018961;28;20081;-80
2021/01/14 12:36:56;;;;;;;15.15;5.15;;;3.70;99.90;;;;;;5019214;28;20077;-81
2021/01/14 12:39:22;;;;;;;10.32;4.85;;;3.60;99.90;;;;;;5017064;28;20046;-79
2021/01/14 12:41:49;;;;;;;8.25;4.93;;;3.60;99.90;;;;;;5012744;28;20050;-79
2021/01/14 12:44:15;;;;;;;9.48;4.72;;;3.50;99.90;;;;;;5016045;28;20421;-81
2021/01/14 12:46:45;;;;;;;9.27;5.22;;;3.60;99.90;;;;;;5003635;28;20085;-79
2021/01/14 12:49:13;;;;;;;9.70;5.20;;;3.50;99.90;;;;;;5008488;28;20051;-80
2021/01/14 12:51:43;;;;;;;9.57;5.60;;;3.50;99.90;;;;;;5009784;28;20050;-80
2021/01/14 12:54:10;;;;;;;9.05;5.30;;;3.50;99.90;;;;;;5014090;28;20054;-82
2021/01/14 12:56:37;;;;;;;12.13;5.65;;;3.50;99.90;;;;;;5007944;28;20092;-79
2021/01/14 12:59:03;;;;;;;10.65;5.47;;;3.50;99.90;;;;;;5008081;28;20054;-79
2021/01/14 13:01:31;;;;;;;10.27;5.95;;;3.60;99.90;;;;;;5017169;28;20081;-81
2021/01/14 13:03:58;;;;;;;10.43;5.45;;;3.60;99.90;;;;;;5017469;28;20137;-81
2021/01/14 13:06:26;;;;;;;14.93;6.22;;;3.60;99.90;;;;;;5018206;28;20193;-79
2021/01/14 13:08:53;;;;;;;10.75;5.25;;;3.70;99.90;;;;;;5011015;28;20058;-81